createdAt,value
2023-02-06T00:00:03.059Z,86.00
2023-02-06T00:01:03.074Z,98.00
2023-02-06T00:02:03.157Z,119.40
2023-02-06T00:03:03.028Z,132.80
2023-02-06T00:04:02.989Z,115.90
2023-02-06T00:05:02.955Z,109.20
2023-02-06T00:06:03.020Z,113.70
2023-02-06T00:07:02.921Z,131.90
2023-02-06T00:08:02.928Z,101.50
2023-02-06T00:09:02.885Z,80.30
2023-02-06T00:10:02.869Z,132.20
2023-02-06T00:11:02.849Z,83.50
2023-02-06T00:12:02.832Z,155.50
2023-02-06T00:13:02.838Z,98.30
2023-02-06T00:14:02.826Z,83.50
2023-02-06T00:15:02.786Z,147.60
2023-02-06T00:16:02.805Z,98.40
2023-02-06T00:17:02.737Z,116.70
2023-02-06T00:18:03.514Z,123.40
2023-02-06T00:19:02.714Z,140.40
2023-02-06T00:20:02.683Z,124.40
2023-02-06T00:21:02.669Z,122.90
2023-02-06T00:22:02.652Z,108.60
2023-02-06T00:23:02.656Z,94.70
2023-02-06T00:24:02.618Z,129.20
2023-02-06T00:25:03.700Z,98.70
2023-02-06T00:26:03.575Z,124.90
2023-02-06T00:27:02.556Z,108.20
2023-02-06T00:28:02.569Z,181.50
2023-02-06T00:29:02.517Z,105.70
2023-02-06T00:30:02.500Z,105.60
2023-02-06T00:31:02.594Z,98.60
2023-02-06T00:32:02.460Z,197.10
2023-02-06T00:33:02.479Z,130.40
2023-02-06T00:34:02.428Z,101.10
2023-02-06T00:35:02.417Z,163.60
2023-02-06T00:36:02.404Z,120.50
2023-02-06T00:37:02.381Z,187.00
2023-02-06T00:38:02.423Z,120.60
2023-02-06T00:39:02.343Z,118.20
2023-02-06T00:40:02.315Z,132.20
2023-02-06T00:41:03.310Z,102.60
2023-02-06T00:42:02.293Z,146.60
2023-02-06T00:43:02.296Z,179.30
2023-02-06T00:44:02.243Z,146.00
2023-02-06T00:45:02.234Z,153.20
2023-02-06T00:46:02.285Z,178.00
2023-02-06T00:47:02.194Z,124.10
2023-02-06T00:48:02.208Z,106.90
2023-02-06T00:49:02.154Z,116.20
2023-02-06T00:50:02.172Z,101.30
2023-02-06T00:51:02.121Z,95.10
2023-02-06T00:52:02.104Z,78.30
2023-02-06T00:53:02.119Z,72.20
2023-02-06T00:54:02.068Z,76.70
2023-02-06T00:55:02.053Z,91.10
2023-02-06T00:56:02.038Z,88.80
2023-02-06T00:57:02.017Z,98.00
2023-02-06T00:58:02.029Z,101.10
2023-02-06T00:59:01.987Z,95.40
2023-02-06T01:00:01.968Z,77.10
2023-02-06T01:01:01.948Z,78.80
2023-02-06T01:02:01.931Z,111.40
2023-02-06T01:03:02.024Z,88.00
2023-02-06T01:04:01.883Z,66.40
2023-02-06T01:05:01.869Z,59.40
2023-02-06T01:06:01.855Z,73.50
2023-02-06T01:07:01.826Z,63.70
2023-02-06T01:08:04.250Z,60.70
2023-02-06T01:09:01.791Z,60.90
2023-02-06T01:10:01.788Z,66.60
2023-02-06T01:11:01.754Z,55.30
2023-02-06T01:12:01.738Z,62.90
2023-02-06T01:13:01.750Z,77.40
2023-02-06T01:14:01.691Z,54.10
2023-02-06T01:15:01.680Z,55.10
2023-02-06T01:16:01.689Z,52.20
2023-02-06T01:17:01.676Z,54.60
2023-02-06T01:18:01.626Z,52.20
2023-02-06T01:19:01.638Z,52.00
2023-02-06T01:20:01.615Z,58.90
2023-02-06T01:21:01.584Z,59.80
2023-02-06T01:22:01.551Z,52.90
2023-02-06T01:23:01.537Z,60.70
2023-02-06T01:24:01.542Z,50.40
2023-02-06T01:25:01.520Z,44.70
2023-02-06T01:26:01.480Z,39.70
2023-02-06T01:27:01.463Z,49.10
2023-02-06T01:28:01.442Z,45.10
2023-02-06T01:29:01.453Z,54.80
2023-02-06T01:30:01.414Z,44.70
2023-02-06T01:31:01.478Z,40.00
2023-02-06T01:32:01.362Z,38.20
2023-02-06T01:33:01.375Z,43.40
2023-02-06T01:34:01.359Z,28.60
2023-02-06T01:35:01.313Z,28.30
2023-02-06T01:36:01.291Z,28.80
2023-02-06T01:37:01.269Z,30.70
2023-02-06T01:38:01.256Z,32.30
2023-02-06T01:39:01.265Z,29.50
2023-02-06T01:40:01.220Z,34.60
2023-02-06T01:41:01.198Z,30.50
2023-02-06T01:42:01.191Z,26.40
2023-02-06T01:43:01.161Z,25.90
2023-02-06T01:44:01.173Z,26.20
2023-02-06T01:45:01.127Z,24.30
2023-02-06T01:46:01.141Z,23.30
2023-02-06T01:47:01.089Z,27.20
2023-02-06T01:48:01.070Z,26.30
2023-02-06T01:49:01.091Z,23.50
2023-02-06T01:50:01.041Z,21.30
2023-02-06T01:51:01.024Z,20.70
2023-02-06T01:52:01.001Z,19.20
2023-02-06T01:53:01.140Z,16.50
2023-02-06T01:54:00.992Z,16.90
2023-02-06T01:55:00.953Z,15.20
2023-02-06T01:56:00.929Z,16.00
2023-02-06T01:57:00.908Z,16.20
2023-02-06T01:58:00.893Z,18.70
2023-02-06T01:59:00.909Z,16.30
2023-02-06T02:00:00.859Z,14.80
2023-02-06T02:01:00.883Z,15.10
2023-02-06T02:02:00.893Z,14.40
2023-02-06T02:03:00.805Z,12.70
2023-02-06T02:04:00.820Z,13.80
2023-02-06T02:05:00.770Z,13.00
2023-02-06T02:06:00.750Z,12.00
2023-02-06T02:07:00.732Z,11.10
2023-02-06T02:08:00.715Z,14.90
2023-02-06T02:09:00.722Z,12.70
2023-02-06T02:10:00.679Z,12.20
2023-02-06T02:11:00.658Z,14.70
2023-02-06T02:12:00.650Z,9.60
2023-02-06T02:13:00.620Z,10.50
2023-02-06T02:14:00.634Z,10.20
2023-02-06T02:15:00.598Z,8.10
2023-02-06T02:16:00.615Z,9.30
2023-02-06T02:17:00.550Z,7.70
2023-02-06T02:18:00.543Z,8.00
2023-02-06T02:19:00.578Z,8.70
2023-02-06T02:20:00.507Z,8.20
2023-02-06T02:21:00.483Z,11.60
2023-02-06T02:22:00.465Z,8.40
2023-02-06T02:23:00.444Z,10.40
2023-02-06T02:24:00.456Z,10.70
2023-02-06T02:25:00.416Z,9.80
2023-02-06T02:26:00.394Z,12.40
2023-02-06T02:27:00.370Z,14.70
2023-02-06T02:28:00.397Z,12.60
2023-02-06T02:29:00.365Z,12.40
2023-02-06T02:30:00.328Z,14.70
2023-02-06T02:31:00.298Z,15.50
2023-02-06T02:32:00.284Z,16.00
2023-02-06T02:33:00.259Z,16.60
2023-02-06T02:34:00.277Z,16.70
2023-02-06T02:35:00.229Z,17.10
2023-02-06T02:36:00.212Z,16.50
2023-02-06T02:37:00.195Z,16.50
2023-02-06T02:38:00.171Z,16.00
2023-02-06T02:39:00.182Z,18.50
2023-02-06T02:40:00.165Z,18.20
2023-02-06T02:41:00.121Z,16.00
2023-02-06T02:42:00.120Z,13.40
2023-02-06T02:43:00.108Z,13.70
2023-02-06T02:44:00.098Z,16.00
2023-02-06T02:45:00.048Z,17.20
2023-02-06T02:46:00.045Z,15.60
2023-02-06T02:47:00.008Z,19.80
2023-02-06T02:47:59.987Z,14.50
2023-02-06T02:49:00.006Z,18.20
2023-02-06T02:49:59.951Z,15.90
2023-02-06T02:50:59.928Z,17.50
2023-02-06T02:51:59.912Z,17.30
2023-02-06T02:52:59.893Z,17.50
2023-02-06T02:53:59.904Z,15.60
2023-02-06T02:54:59.863Z,16.00
2023-02-06T02:55:59.845Z,19.40
2023-02-06T02:56:59.816Z,15.20
2023-02-06T02:57:59.794Z,19.90
2023-02-06T02:58:59.804Z,18.20
2023-02-06T02:59:59.760Z,18.70
2023-02-06T03:00:59.765Z,18.70
2023-02-06T03:01:59.788Z,15.70
2023-02-06T03:02:59.703Z,21.30
2023-02-06T03:03:59.713Z,18.70
2023-02-06T03:04:59.659Z,17.20
2023-02-06T03:05:59.646Z,17.60
2023-02-06T03:06:59.630Z,19.90
2023-02-06T03:07:59.603Z,20.60
2023-02-06T03:08:59.688Z,21.10
2023-02-06T03:09:59.554Z,23.30
2023-02-06T03:11:00.544Z,23.20
2023-02-06T03:11:59.533Z,22.70
2023-02-06T03:12:59.516Z,21.60
2023-02-06T03:13:59.522Z,21.20
2023-02-06T03:14:59.476Z,22.10
2023-02-06T03:15:59.457Z,23.10
2023-02-06T03:16:59.444Z,22.30
2023-02-06T03:17:59.419Z,23.40
2023-02-06T03:18:59.428Z,22.20
2023-02-06T03:19:59.395Z,22.60
2023-02-06T03:20:59.363Z,21.50
2023-02-06T03:21:59.350Z,25.20
2023-02-06T03:22:59.331Z,20.90
2023-02-06T03:23:59.348Z,26.10
2023-02-06T03:24:59.307Z,24.40
2023-02-06T03:25:59.283Z,22.00
2023-02-06T03:26:59.255Z,20.80
2023-02-06T03:27:59.278Z,24.60
2023-02-06T03:28:59.245Z,23.90
2023-02-06T03:29:59.202Z,24.60
2023-02-06T03:30:59.220Z,27.80
2023-02-06T03:31:59.165Z,26.30
2023-02-06T03:32:59.147Z,26.00
2023-02-06T03:33:59.158Z,22.90
2023-02-06T03:34:59.113Z,19.40
2023-02-06T03:35:59.104Z,21.30
2023-02-06T03:36:59.078Z,25.20
2023-02-06T03:37:59.063Z,25.30
2023-02-06T03:38:59.072Z,22.70
2023-02-06T03:39:59.035Z,27.30
2023-02-06T03:40:59.004Z,22.80
2023-02-06T03:41:58.992Z,26.60
2023-02-06T03:42:58.971Z,23.50
2023-02-06T03:43:58.984Z,22.80
2023-02-06T03:44:58.937Z,24.50
2023-02-06T03:45:58.946Z,22.70
2023-02-06T03:46:58.892Z,22.60
2023-02-06T03:47:58.875Z,21.90
2023-02-06T03:48:58.892Z,22.60
2023-02-06T03:49:58.844Z,23.70
2023-02-06T03:50:58.825Z,26.30
2023-02-06T03:51:58.805Z,26.20
2023-02-06T03:52:58.792Z,25.00
2023-02-06T03:53:58.802Z,27.90
2023-02-06T03:54:58.757Z,27.60
2023-02-06T03:55:58.744Z,26.60
2023-02-06T03:56:58.718Z,30.50
2023-02-06T03:57:58.711Z,25.60
2023-02-06T03:58:58.713Z,29.70
2023-02-06T03:59:58.661Z,29.50
2023-02-06T04:00:58.668Z,34.40
2023-02-06T04:01:58.691Z,29.10
2023-02-06T04:02:58.607Z,24.60
2023-02-06T04:03:58.625Z,29.80
2023-02-06T04:04:58.576Z,28.10
2023-02-06T04:05:58.556Z,30.60
2023-02-06T04:06:58.540Z,27.80
2023-02-06T04:07:58.515Z,30.10
2023-02-06T04:08:58.527Z,26.90
2023-02-06T04:09:58.483Z,29.40
2023-02-06T04:10:58.469Z,29.30
2023-02-06T04:11:58.454Z,29.50
2023-02-06T04:12:58.443Z,27.40
2023-02-06T04:13:58.448Z,33.80
2023-02-06T04:14:58.415Z,32.50
2023-02-06T04:15:58.378Z,32.70
2023-02-06T04:16:58.362Z,31.90
2023-02-06T04:18:01.025Z,35.50
2023-02-06T04:18:59.360Z,32.60
2023-02-06T04:19:58.303Z,34.70
2023-02-06T04:20:58.289Z,35.20
2023-02-06T04:21:58.290Z,30.40
2023-02-06T04:22:58.243Z,33.50
2023-02-06T04:23:58.225Z,30.40
2023-02-06T04:24:58.234Z,30.50
2023-02-06T04:25:58.190Z,27.00
2023-02-06T04:26:58.176Z,29.30
2023-02-06T04:27:58.179Z,26.10
2023-02-06T04:28:58.133Z,25.50
2023-02-06T04:29:58.145Z,24.60
2023-02-06T04:30:58.202Z,24.90
2023-02-06T04:31:58.078Z,22.90
2023-02-06T04:32:58.059Z,20.70
2023-02-06T04:33:58.040Z,22.90
2023-02-06T04:34:58.056Z,21.90
2023-02-06T04:35:58.003Z,27.30
2023-02-06T04:36:58.002Z,25.00
2023-02-06T04:37:57.974Z,32.70
2023-02-06T04:38:57.947Z,29.20
2023-02-06T04:39:57.956Z,29.20
2023-02-06T04:40:57.902Z,27.30
2023-02-06T04:41:57.889Z,30.40
2023-02-06T04:42:57.876Z,30.50
2023-02-06T04:43:57.867Z,23.60
2023-02-06T04:44:57.868Z,23.10
2023-02-06T04:45:57.857Z,25.90
2023-02-06T04:46:57.806Z,24.70
2023-02-06T04:47:59.443Z,22.70
2023-02-06T04:48:58.778Z,21.90
2023-02-06T04:49:57.770Z,26.60
2023-02-06T04:50:57.730Z,27.30
2023-02-06T04:51:57.711Z,28.90
2023-02-06T04:52:57.691Z,26.00
2023-02-06T04:53:57.676Z,23.70
2023-02-06T04:54:57.690Z,23.00
2023-02-06T04:55:57.644Z,22.00
2023-02-06T04:56:57.622Z,24.00
2023-02-06T04:57:57.599Z,19.40
2023-02-06T04:58:57.584Z,20.20
2023-02-06T04:59:57.592Z,22.20
2023-02-06T05:00:57.549Z,21.10
2023-02-06T05:01:57.558Z,22.20
2023-02-06T05:02:57.514Z,23.80
2023-02-06T05:03:57.491Z,28.00
2023-02-06T05:04:57.508Z,23.40
2023-02-06T05:05:57.455Z,26.20
2023-02-06T05:06:57.435Z,23.60
2023-02-06T05:07:57.418Z,28.40
2023-02-06T05:08:57.398Z,24.60
2023-02-06T05:09:57.405Z,30.10
2023-02-06T05:10:57.373Z,25.60
2023-02-06T05:11:57.353Z,25.80
2023-02-06T05:12:57.321Z,30.50
2023-02-06T05:13:57.308Z,29.70
2023-02-06T05:14:57.319Z,29.10
2023-02-06T05:15:57.304Z,28.10
2023-02-06T05:16:57.261Z,30.80
2023-02-06T05:17:57.238Z,25.30
2023-02-06T05:18:57.213Z,27.90
2023-02-06T05:19:58.409Z,24.30
2023-02-06T05:20:58.187Z,28.60
2023-02-06T05:21:57.165Z,21.40
2023-02-06T05:22:57.143Z,27.90
2023-02-06T05:23:57.118Z,29.80
2023-02-06T05:24:58.136Z,26.60
2023-02-06T05:25:57.092Z,29.10
2023-02-06T05:26:57.073Z,25.80
2023-02-06T05:27:57.067Z,25.70
2023-02-06T05:28:57.037Z,27.30
2023-02-06T05:29:57.050Z,29.80
2023-02-06T05:30:57.067Z,27.00
2023-02-06T05:31:57.050Z,30.70
2023-02-06T05:32:56.966Z,29.70
2023-02-06T05:33:56.944Z,28.10
2023-02-06T05:34:56.960Z,29.00
2023-02-06T05:35:56.910Z,28.40
2023-02-06T05:36:56.885Z,24.20
2023-02-06T05:37:56.869Z,27.90
2023-02-06T05:38:56.870Z,24.90
2023-02-06T05:39:59.082Z,25.60
2023-02-06T05:40:56.822Z,29.10
2023-02-06T05:41:56.800Z,25.40
2023-02-06T05:42:56.780Z,30.70
2023-02-06T05:43:56.762Z,29.60
2023-02-06T05:44:56.769Z,25.70
2023-02-06T05:45:56.725Z,28.30
2023-02-06T05:46:56.706Z,32.70
2023-02-06T05:47:56.688Z,31.70
2023-02-06T05:48:56.679Z,33.70
2023-02-06T05:49:56.682Z,35.40
2023-02-06T05:50:56.639Z,32.90
2023-02-06T05:51:56.623Z,33.80
2023-02-06T05:52:56.621Z,37.20
2023-02-06T05:53:56.587Z,32.50
2023-02-06T05:54:56.593Z,34.30
2023-02-06T05:55:56.546Z,33.70
2023-02-06T05:56:56.529Z,36.50
2023-02-06T05:57:56.512Z,33.00
2023-02-06T05:58:56.499Z,35.40
2023-02-06T05:59:56.506Z,44.50
2023-02-06T06:00:56.460Z,35.40
2023-02-06T06:01:56.436Z,39.10
2023-02-06T06:02:56.421Z,38.50
2023-02-06T06:03:56.452Z,30.20
2023-02-06T06:04:56.731Z,34.80
2023-02-06T06:05:56.426Z,27.40
2023-02-06T06:06:56.374Z,26.60
2023-02-06T06:07:56.328Z,26.30
2023-02-06T06:08:56.318Z,23.10
2023-02-06T06:09:56.316Z,30.80
2023-02-06T06:10:56.278Z,28.70
2023-02-06T06:11:56.262Z,29.60
2023-02-06T06:12:56.243Z,37.00
2023-02-06T06:13:56.227Z,30.10
2023-02-06T06:14:56.228Z,27.30
2023-02-06T06:15:56.318Z,29.70
2023-02-06T06:16:56.164Z,28.90
2023-02-06T06:17:56.145Z,25.60
2023-02-06T06:18:56.139Z,30.20
2023-02-06T06:19:56.135Z,24.80
2023-02-06T06:20:56.091Z,23.20
2023-02-06T06:21:58.172Z,28.10
2023-02-06T06:22:57.054Z,19.90
2023-02-06T06:23:56.042Z,24.40
2023-02-06T06:24:56.043Z,20.00
2023-02-06T06:25:55.999Z,21.90
2023-02-06T06:26:55.977Z,24.60
2023-02-06T06:27:55.965Z,23.20
2023-02-06T06:28:55.940Z,27.60
2023-02-06T06:29:55.955Z,28.40
2023-02-06T06:30:55.960Z,24.80
2023-02-06T06:31:55.957Z,33.80
2023-02-06T06:32:55.860Z,34.80
2023-02-06T06:33:56.849Z,27.80
2023-02-06T06:34:55.852Z,30.60
2023-02-06T06:35:55.812Z,25.20
2023-02-06T06:36:55.798Z,25.20
2023-02-06T06:37:55.780Z,29.30
2023-02-06T06:38:55.759Z,30.00
2023-02-06T06:39:55.766Z,27.20
2023-02-06T06:40:55.719Z,26.90
2023-02-06T06:41:55.703Z,28.60
2023-02-06T06:42:55.686Z,30.00
2023-02-06T06:43:55.667Z,29.40
2023-02-06T06:44:55.682Z,30.70
2023-02-06T06:45:55.666Z,29.10
2023-02-06T06:46:55.615Z,27.90
2023-02-06T06:47:55.594Z,31.60
2023-02-06T06:48:55.579Z,30.40
2023-02-06T06:49:55.584Z,30.80
2023-02-06T06:50:55.543Z,34.90
2023-02-06T06:51:55.522Z,30.30
2023-02-06T06:52:55.503Z,29.90
2023-02-06T06:53:55.480Z,31.20
2023-02-06T06:54:55.494Z,31.00
2023-02-06T06:55:55.446Z,26.50
2023-02-06T06:56:55.539Z,29.80
2023-02-06T06:57:55.416Z,30.40
2023-02-06T06:58:55.397Z,30.40
2023-02-06T06:59:55.399Z,28.30
2023-02-06T07:00:55.357Z,29.50
2023-02-06T07:01:55.341Z,27.20
2023-02-06T07:02:55.337Z,28.80
2023-02-06T07:03:55.310Z,25.90
2023-02-06T07:04:55.312Z,28.70
2023-02-06T07:05:55.263Z,30.40
2023-02-06T07:06:55.253Z,28.90
2023-02-06T07:07:55.226Z,31.50
2023-02-06T07:08:55.214Z,28.80
2023-02-06T07:09:55.223Z,31.90
2023-02-06T07:10:55.181Z,26.80
2023-02-06T07:11:55.161Z,27.10
2023-02-06T07:12:55.135Z,28.20
2023-02-06T07:13:55.112Z,32.00
2023-02-06T07:14:55.125Z,24.10
2023-02-06T07:15:55.082Z,28.20
2023-02-06T07:16:55.062Z,27.80
2023-02-06T07:17:55.058Z,35.60
2023-02-06T07:18:55.030Z,29.30
2023-02-06T07:19:55.038Z,30.30
2023-02-06T07:20:54.991Z,32.70
2023-02-06T07:21:54.977Z,32.00
2023-02-06T07:22:54.952Z,30.30
2023-02-06T07:23:54.939Z,36.60
2023-02-06T07:24:54.948Z,41.40
2023-02-06T07:25:54.893Z,41.10
2023-02-06T07:26:54.882Z,38.70
2023-02-06T07:27:54.893Z,41.10
2023-02-06T07:28:54.839Z,40.20
2023-02-06T07:29:54.857Z,35.80
2023-02-06T07:30:54.822Z,30.00
2023-02-06T07:31:54.851Z,24.10
2023-02-06T07:32:54.765Z,26.30
2023-02-06T07:33:54.750Z,28.80
2023-02-06T07:34:54.764Z,26.10
2023-02-06T07:35:54.709Z,24.80
2023-02-06T07:36:54.692Z,25.10
2023-02-06T07:37:54.676Z,25.20
2023-02-06T07:38:54.654Z,22.80
2023-02-06T07:39:54.662Z,27.60
2023-02-06T07:40:54.631Z,27.90
2023-02-06T07:41:54.607Z,26.20
2023-02-06T07:42:54.590Z,26.60
2023-02-06T07:43:54.562Z,25.60
2023-02-06T07:44:55.033Z,29.70
2023-02-06T07:45:54.529Z,24.30
2023-02-06T07:46:54.511Z,24.30
2023-02-06T07:47:54.495Z,21.60
2023-02-06T07:48:54.479Z,24.30
2023-02-06T07:49:54.485Z,24.20
2023-02-06T07:50:54.438Z,25.10
2023-02-06T07:51:54.417Z,23.60
2023-02-06T07:52:54.398Z,21.90
2023-02-06T07:53:54.382Z,19.90
2023-02-06T07:54:54.390Z,22.60
2023-02-06T07:55:54.353Z,22.70
2023-02-06T07:56:54.325Z,26.00
2023-02-06T07:57:54.311Z,23.60
2023-02-06T07:58:54.294Z,23.40
2023-02-06T07:59:54.322Z,26.60
2023-02-06T08:00:54.323Z,23.70
2023-02-06T08:01:54.244Z,23.00
2023-02-06T08:02:54.217Z,28.20
2023-02-06T08:03:54.206Z,23.80
2023-02-06T08:04:54.214Z,20.40
2023-02-06T08:05:54.157Z,25.00
2023-02-06T08:06:54.138Z,27.10
2023-02-06T08:07:54.121Z,22.40
2023-02-06T08:08:54.107Z,24.70
2023-02-06T08:09:54.125Z,22.80
2023-02-06T08:10:54.062Z,24.00
2023-02-06T08:11:54.047Z,29.20
2023-02-06T08:12:54.033Z,32.10
2023-02-06T08:13:54.025Z,26.80
2023-02-06T08:14:54.024Z,25.90
2023-02-06T08:15:53.977Z,27.30
2023-02-06T08:16:54.104Z,26.80
2023-02-06T08:17:53.969Z,25.60
2023-02-06T08:18:53.921Z,27.50
2023-02-06T08:19:53.943Z,24.40
2023-02-06T08:20:53.890Z,25.40
2023-02-06T08:21:53.870Z,31.40
2023-02-06T08:22:53.851Z,29.50
2023-02-06T08:23:53.833Z,28.30
2023-02-06T08:24:53.855Z,29.40
2023-02-06T08:25:53.802Z,26.20
2023-02-06T08:26:53.779Z,29.20
2023-02-06T08:27:53.785Z,25.10
2023-02-06T08:28:53.761Z,25.40
2023-02-06T08:29:53.756Z,28.30
2023-02-06T08:30:53.751Z,27.30
2023-02-06T08:31:53.739Z,28.80
2023-02-06T08:32:53.841Z,27.00
2023-02-06T08:33:53.651Z,29.00
2023-02-06T08:34:53.663Z,30.90
2023-02-06T08:35:53.616Z,25.30
2023-02-06T08:36:53.605Z,29.90
2023-02-06T08:37:53.575Z,26.90
2023-02-06T08:38:53.567Z,23.80
2023-02-06T08:39:53.543Z,20.40
2023-02-06T08:40:53.553Z,26.90
2023-02-06T08:41:53.509Z,27.50
2023-02-06T08:42:53.488Z,26.40
2023-02-06T08:43:53.472Z,26.90
2023-02-06T08:44:53.452Z,26.80
2023-02-06T08:45:53.513Z,27.50
2023-02-06T08:47:04.651Z,27.70
2023-02-06T08:47:55.396Z,24.20
2023-02-06T08:48:53.899Z,22.60
2023-02-06T08:49:53.359Z,28.70
2023-02-06T08:50:53.376Z,28.40
2023-02-06T08:51:53.319Z,27.90
2023-02-06T08:52:53.299Z,28.40
2023-02-06T08:53:53.285Z,28.20
2023-02-06T08:54:53.270Z,27.10
2023-02-06T08:55:53.278Z,23.80
2023-02-06T08:56:54.227Z,32.70
2023-02-06T08:57:53.219Z,26.00
2023-02-06T08:58:53.191Z,29.20
2023-02-06T08:59:53.181Z,28.00
2023-02-06T09:00:53.180Z,24.50
2023-02-06T09:01:53.899Z,21.40
2023-02-06T09:02:53.176Z,29.20
2023-02-06T09:03:53.098Z,27.40
2023-02-06T09:04:53.103Z,22.20
2023-02-06T09:05:54.143Z,26.00
2023-02-06T09:06:54.040Z,23.60
2023-02-06T09:07:53.026Z,25.70
2023-02-06T09:08:53.007Z,24.90
2023-02-06T09:09:52.989Z,20.40
2023-02-06T09:10:52.989Z,24.30
2023-02-06T09:11:52.981Z,25.20
2023-02-06T09:12:52.925Z,22.00
2023-02-06T09:13:52.909Z,23.60
2023-02-06T09:14:52.888Z,24.20
2023-02-06T09:15:52.902Z,25.80
2023-02-06T09:16:52.877Z,27.20
2023-02-06T09:17:52.828Z,21.90
2023-02-06T09:18:54.140Z,25.60
2023-02-06T09:19:53.797Z,25.90
2023-02-06T09:20:52.804Z,22.90
2023-02-06T09:21:52.760Z,27.10
2023-02-06T09:22:52.735Z,23.20
2023-02-06T09:23:52.718Z,22.80
2023-02-06T09:24:52.698Z,21.90
2023-02-06T09:25:52.713Z,20.30
2023-02-06T09:27:01.024Z,22.50
2023-02-06T09:27:56.254Z,24.70
2023-02-06T09:28:53.621Z,21.00
2023-02-06T09:29:52.608Z,16.10
2023-02-06T09:30:52.702Z,16.40
2023-02-06T09:31:52.569Z,20.20
2023-02-06T09:32:52.551Z,14.90
2023-02-06T09:33:52.533Z,15.10
2023-02-06T09:34:52.521Z,16.30
2023-02-06T09:35:52.526Z,18.50
2023-02-06T09:36:52.482Z,17.50
2023-02-06T09:37:52.467Z,18.30
2023-02-06T09:38:52.454Z,14.80
2023-02-06T09:39:52.429Z,18.80
2023-02-06T09:40:52.437Z,18.30
2023-02-06T09:41:52.403Z,18.20
2023-02-06T09:42:52.375Z,14.30
2023-02-06T09:43:52.377Z,18.80
2023-02-06T09:44:52.344Z,15.30
2023-02-06T09:45:52.360Z,16.20
2023-02-06T09:46:52.306Z,18.80
2023-02-06T09:47:52.290Z,16.20
2023-02-06T09:48:52.269Z,13.70
2023-02-06T09:49:52.248Z,17.60
2023-02-06T09:50:52.282Z,14.90
2023-02-06T09:51:52.215Z,16.70
2023-02-06T09:52:53.008Z,18.60
2023-02-06T09:53:52.179Z,15.90
2023-02-06T09:54:52.165Z,13.00
2023-02-06T09:55:52.167Z,13.90
2023-02-06T09:56:52.125Z,15.00
2023-02-06T09:57:52.105Z,19.10
2023-02-06T09:58:52.078Z,14.90
2023-02-06T09:59:52.075Z,17.60
2023-02-06T10:00:52.087Z,22.10
2023-02-06T10:01:52.071Z,15.40
2023-02-06T10:02:52.006Z,16.30
2023-02-06T10:03:52.042Z,15.70
2023-02-06T10:04:51.966Z,16.50
2023-02-06T10:05:52.523Z,17.80
2023-02-06T10:06:51.951Z,14.90
2023-02-06T10:07:51.907Z,17.30
2023-02-06T10:08:51.882Z,16.70
2023-02-06T10:09:51.871Z,18.30
2023-02-06T10:10:51.844Z,15.00
2023-02-06T10:11:51.844Z,16.40
2023-02-06T10:12:51.794Z,16.20
2023-02-06T10:13:51.775Z,20.50
2023-02-06T10:14:51.784Z,20.70
2023-02-06T10:15:51.757Z,18.10
2023-02-06T10:16:51.737Z,19.90
2023-02-06T10:17:51.687Z,20.50
2023-02-06T10:18:52.495Z,18.40
2023-02-06T10:19:51.648Z,20.70
2023-02-06T10:20:52.373Z,19.60
2023-02-06T10:21:51.631Z,18.70
2023-02-06T10:22:51.584Z,20.00
2023-02-06T10:23:51.569Z,19.00
2023-02-06T10:24:51.541Z,20.60
2023-02-06T10:25:51.526Z,16.60
2023-02-06T10:26:51.530Z,16.00
2023-02-06T10:27:51.552Z,14.30
2023-02-06T10:28:51.466Z,15.50
2023-02-06T10:29:51.444Z,17.60
2023-02-06T10:30:51.487Z,16.10
2023-02-06T10:31:52.425Z,15.90
2023-02-06T10:32:52.374Z,18.00
2023-02-06T10:33:51.357Z,19.60
2023-02-06T10:34:51.340Z,18.00
2023-02-06T10:35:51.315Z,17.20
2023-02-06T10:36:51.326Z,16.90
2023-02-06T10:37:51.273Z,16.30
2023-02-06T10:38:51.251Z,15.90
2023-02-06T10:39:51.229Z,16.10
2023-02-06T10:40:51.213Z,17.10
2023-02-06T10:41:51.214Z,18.50
2023-02-06T10:42:51.157Z,17.60
2023-02-06T10:43:51.143Z,17.40
2023-02-06T10:44:53.015Z,18.00
2023-02-06T10:45:53.112Z,16.40
2023-02-06T10:46:51.173Z,18.10
2023-02-06T10:47:51.066Z,16.00
2023-02-06T10:48:52.833Z,17.90
2023-02-06T10:49:51.024Z,16.70
2023-02-06T10:50:51.015Z,15.10
2023-02-06T10:51:51.018Z,18.40
2023-02-06T10:52:50.966Z,19.10
2023-02-06T10:53:50.943Z,18.90
2023-02-06T10:54:50.924Z,17.60
2023-02-06T10:55:51.214Z,17.50
2023-02-06T10:56:51.016Z,15.10
2023-02-06T10:57:50.872Z,17.00
2023-02-06T10:58:50.842Z,19.30
2023-02-06T10:59:52.708Z,23.00
2023-02-06T11:00:50.867Z,18.80
2023-02-06T11:01:50.841Z,14.50
2023-02-06T11:03:01.322Z,14.80
2023-02-06T11:03:52.741Z,19.10
2023-02-06T11:04:50.720Z,16.90
2023-02-06T11:05:50.695Z,17.70
2023-02-06T11:06:50.707Z,17.50
2023-02-06T11:07:50.660Z,18.30
2023-02-06T11:08:50.640Z,13.50
2023-02-06T11:09:50.624Z,14.70
2023-02-06T11:10:50.607Z,16.60
2023-02-06T11:11:50.612Z,13.60
2023-02-06T11:12:50.724Z,16.10
2023-02-06T11:13:50.545Z,15.50
2023-02-06T11:14:50.526Z,15.10
2023-02-06T11:15:50.508Z,17.70
2023-02-06T11:16:50.518Z,16.10
2023-02-06T11:17:50.460Z,13.00
2023-02-06T11:18:50.450Z,13.10
2023-02-06T11:19:50.426Z,15.30
2023-02-06T11:20:50.414Z,12.40
2023-02-06T11:21:50.409Z,12.60
2023-02-06T11:22:53.545Z,12.90
2023-02-06T11:23:51.346Z,14.50
2023-02-06T11:24:50.592Z,18.50
2023-02-06T11:25:50.323Z,14.90
2023-02-06T11:26:50.322Z,11.70
2023-02-06T11:27:50.305Z,15.10
2023-02-06T11:28:50.266Z,13.10
2023-02-06T11:29:52.088Z,13.20
2023-02-06T11:30:51.258Z,14.60
2023-02-06T11:31:50.278Z,17.20
2023-02-06T11:33:03.691Z,15.00
2023-02-06T11:33:52.174Z,15.80
2023-02-06T11:34:50.141Z,15.50
2023-02-06T11:35:50.125Z,17.90
2023-02-06T11:36:50.137Z,13.00
2023-02-06T11:37:50.089Z,16.70
2023-02-06T11:38:50.078Z,16.60
2023-02-06T11:39:50.054Z,16.50
2023-02-06T11:40:50.152Z,15.10
2023-02-06T11:41:50.048Z,16.30
2023-02-06T11:42:50.984Z,15.70
2023-02-06T11:43:49.985Z,20.70
2023-02-06T11:44:49.965Z,17.20
2023-02-06T11:45:49.995Z,15.50
2023-02-06T11:46:49.961Z,15.50
2023-02-06T11:47:50.480Z,16.00
2023-02-06T11:48:49.898Z,15.40
2023-02-06T11:49:49.888Z,16.30
2023-02-06T11:50:49.862Z,18.50
2023-02-06T11:51:49.885Z,17.10
2023-02-06T11:52:49.826Z,13.40
2023-02-06T11:53:49.808Z,14.70
2023-02-06T11:54:49.794Z,15.40
2023-02-06T11:55:49.776Z,18.00
2023-02-06T11:56:49.789Z,15.70
2023-02-06T11:57:49.739Z,16.00
2023-02-06T11:58:49.760Z,16.70
2023-02-06T11:59:49.697Z,17.40
2023-02-06T12:00:49.693Z,14.30
2023-02-06T12:01:49.669Z,14.60
2023-02-06T12:02:49.674Z,16.50
2023-02-06T12:03:49.630Z,18.90
2023-02-06T12:04:49.613Z,16.90
2023-02-06T12:05:49.597Z,19.50
2023-02-06T12:06:49.610Z,18.10
2023-02-06T12:07:49.561Z,16.40
2023-02-06T12:08:49.541Z,13.40
2023-02-06T12:09:49.612Z,17.00
2023-02-06T12:10:49.507Z,17.40
2023-02-06T12:11:49.496Z,16.50
2023-02-06T12:12:49.521Z,17.70
2023-02-06T12:13:49.460Z,17.00
2023-02-06T12:14:49.451Z,17.80
2023-02-06T12:15:49.945Z,18.00
2023-02-06T12:16:49.449Z,14.20
2023-02-06T12:17:49.398Z,17.60
2023-02-06T12:18:49.381Z,14.50
2023-02-06T12:19:49.358Z,19.90
2023-02-06T12:20:49.348Z,18.70
2023-02-06T12:21:49.347Z,18.60
2023-02-06T12:22:49.337Z,14.80
2023-02-06T12:23:49.291Z,16.70
2023-02-06T12:24:49.280Z,15.70
2023-02-06T12:25:49.255Z,15.70
2023-02-06T12:26:49.245Z,15.50
2023-02-06T12:27:49.255Z,21.00
2023-02-06T12:28:49.204Z,20.90
2023-02-06T12:29:49.184Z,14.80
2023-02-06T12:30:49.319Z,16.30
2023-02-06T12:31:49.216Z,14.60
2023-02-06T12:32:49.583Z,15.20
2023-02-06T12:33:49.121Z,15.30
2023-02-06T12:34:49.098Z,12.70
2023-02-06T12:35:49.080Z,15.60
2023-02-06T12:36:49.067Z,14.30
2023-02-06T12:37:49.075Z,14.50
2023-02-06T12:38:49.026Z,17.80
2023-02-06T12:39:49.011Z,14.90
2023-02-06T12:40:48.986Z,18.60
2023-02-06T12:41:48.975Z,13.90
2023-02-06T12:42:48.983Z,17.50
2023-02-06T12:43:48.934Z,13.30
2023-02-06T12:44:48.920Z,18.80
2023-02-06T12:45:48.910Z,16.30
2023-02-06T12:46:48.882Z,17.00
2023-02-06T12:47:48.895Z,16.00
2023-02-06T12:48:48.847Z,20.30
2023-02-06T12:49:48.833Z,16.40
2023-02-06T12:50:48.820Z,15.30